createdAt,value
2023-05-12T00:03:50.001Z,6.55
2023-05-12T00:08:53.135Z,6.57
2023-05-12T00:13:56.227Z,6.30
2023-05-12T00:18:59.368Z,6.60
2023-05-12T00:24:02.412Z,6.90
2023-05-12T00:29:05.217Z,6.82
2023-05-12T00:34:08.311Z,6.93
2023-05-12T00:39:11.400Z,7.78
2023-05-12T00:44:14.493Z,7.40
2023-05-12T00:49:17.487Z,6.53
2023-05-12T00:54:20.304Z,6.55
2023-05-12T00:59:23.131Z,6.57
2023-05-12T01:04:26.132Z,6.57
2023-05-12T01:20:07.513Z,6.60
2023-05-12T01:25:12.381Z,6.25
2023-05-12T01:30:17.676Z,6.90
2023-05-12T01:35:20.932Z,7.72
2023-05-12T01:40:32.005Z,7.35
2023-05-12T01:45:35.780Z,6.80
2023-05-12T01:50:38.855Z,6.97
2023-05-12T01:55:47.271Z,7.35
2023-05-12T02:00:50.126Z,7.07
2023-05-12T02:05:53.980Z,7.10
2023-05-12T02:11:07.352Z,6.65
2023-05-12T02:16:11.141Z,7.47
2023-05-12T02:21:14.398Z,7.28
2023-05-12T02:26:17.253Z,7.75
2023-05-12T02:31:20.211Z,7.70
2023-05-12T02:36:23.496Z,7.05
2023-05-12T02:41:26.148Z,7.78
2023-05-12T02:46:29.801Z,7.18
2023-05-12T02:51:33.213Z,8.25
2023-05-12T02:56:36.676Z,8.45
2023-05-12T03:01:39.769Z,7.82
2023-05-12T03:06:42.698Z,7.72
2023-05-12T03:11:46.188Z,9.68
2023-05-12T03:16:49.235Z,9.25
2023-05-12T03:21:52.359Z,9.45
2023-05-12T03:26:55.513Z,9.25
2023-05-12T03:31:58.280Z,8.10
2023-05-12T03:37:01.370Z,8.90
2023-05-12T03:42:04.556Z,8.95
2023-05-12T03:47:08.162Z,8.77
2023-05-12T03:52:13.009Z,8.85
2023-05-12T03:57:16.152Z,8.75
2023-05-12T04:02:19.229Z,8.63
2023-05-12T04:07:22.092Z,8.27
2023-05-12T04:12:25.047Z,9.25
2023-05-12T04:17:28.594Z,10.15
2023-05-12T04:22:32.174Z,9.02
2023-05-12T04:27:35.333Z,9.18
2023-05-12T04:32:38.479Z,8.43
2023-05-12T04:37:42.738Z,9.02
2023-05-12T04:42:46.342Z,9.38
2023-05-12T04:47:50.878Z,9.13
2023-05-12T04:52:55.337Z,9.45
2023-05-12T04:57:58.607Z,9.27
2023-05-12T05:03:01.752Z,9.70
2023-05-12T05:08:05.003Z,9.02
2023-05-12T05:23:13.990Z,8.07
2023-05-12T05:28:17.904Z,8.95
2023-05-12T05:33:21.703Z,8.75
2023-05-12T05:38:25.662Z,8.40
2023-05-12T05:43:30.232Z,8.05
2023-05-12T05:48:34.532Z,8.15
2023-05-12T05:53:37.851Z,9.57
2023-05-12T05:58:41.946Z,8.27
2023-05-12T06:03:45.092Z,8.25
2023-05-12T06:08:48.117Z,8.23
2023-05-12T06:13:51.029Z,8.20
2023-05-12T06:18:54.217Z,7.65
2023-05-12T06:23:57.302Z,8.73
2023-05-12T06:29:00.554Z,8.43
2023-05-12T06:34:04.662Z,6.82
2023-05-12T06:39:07.593Z,7.50
2023-05-12T06:44:13.161Z,6.65
2023-05-12T06:49:18.292Z,7.05
2023-05-12T06:54:21.290Z,7.43
2023-05-12T06:59:24.315Z,6.65
2023-05-12T07:04:27.462Z,5.18
2023-05-12T07:09:30.565Z,5.80
2023-05-12T07:14:33.413Z,5.13
2023-05-12T07:19:36.916Z,6.60
2023-05-12T07:24:40.381Z,5.13
2023-05-12T07:29:48.181Z,5.40
2023-05-12T07:34:50.966Z,5.13
2023-05-12T07:39:59.195Z,6.00
2023-05-12T07:45:02.124Z,5.43
2023-05-12T07:50:11.411Z,5.05
2023-05-12T07:55:14.743Z,5.97
2023-05-12T08:00:18.607Z,11.77
2023-05-12T08:05:21.956Z,4.75
2023-05-12T08:10:29.945Z,4.53
2023-05-12T08:15:33.004Z,4.47
2023-05-12T08:20:36.460Z,4.70
2023-05-12T08:25:41.157Z,4.03
2023-05-12T08:30:45.871Z,4.63
2023-05-12T08:35:48.996Z,4.20
2023-05-12T08:41:01.809Z,3.60
2023-05-12T08:46:05.629Z,3.75
2023-05-12T08:51:10.563Z,4.05
2023-05-12T09:01:23.768Z,3.53
2023-05-12T09:06:26.907Z,3.78
2023-05-12T09:11:30.147Z,3.25
2023-05-12T09:16:40.238Z,3.55
2023-05-12T09:21:43.392Z,2.92
2023-05-12T09:26:46.796Z,2.55
2023-05-12T09:31:53.724Z,2.90
2023-05-12T09:36:57.471Z,2.83
2023-05-12T09:42:00.442Z,3.33
2023-05-12T09:47:08.463Z,3.10
2023-05-12T09:52:11.933Z,2.92
2023-05-12T09:57:17.407Z,2.92
2023-05-12T10:02:20.968Z,2.80
2023-05-12T10:07:26.496Z,3.60
2023-05-12T10:12:29.671Z,3.55
2023-05-12T10:17:33.219Z,3.58
2023-05-12T10:22:38.918Z,2.88
2023-05-12T10:27:42.553Z,3.80
2023-05-12T10:32:45.668Z,3.58
2023-05-12T10:38:01.671Z,3.72
2023-05-12T10:48:09.508Z,3.55
2023-05-12T10:53:12.424Z,3.28
2023-05-12T10:58:18.254Z,3.67
2023-05-12T11:03:33.334Z,3.80
2023-05-12T11:08:38.170Z,3.55
2023-05-12T11:13:42.679Z,3.25
2023-05-12T11:18:45.424Z,3.67
2023-05-12T11:23:50.965Z,3.85
2023-05-12T11:28:54.564Z,4.22
2023-05-12T11:34:11.949Z,3.78
2023-05-12T11:39:21.309Z,5.68
2023-05-12T11:44:25.193Z,3.33
2023-05-12T11:49:29.622Z,3.28
2023-05-12T11:54:32.621Z,2.97
2023-05-12T11:59:35.703Z,2.65
2023-05-12T12:04:41.099Z,3.40
2023-05-12T12:09:44.353Z,3.28
2023-05-12T12:14:47.342Z,3.50
2023-05-12T12:19:50.529Z,4.40
2023-05-12T12:24:54.103Z,4.18
2023-05-12T12:30:02.167Z,4.45
2023-05-12T12:35:07.189Z,4.40
2023-05-12T12:40:10.583Z,4.45
2023-05-12T12:45:14.235Z,5.70
2023-05-12T12:50:23.900Z,5.97
2023-05-12T12:55:28.351Z,6.93
2023-05-12T13:00:31.869Z,6.25
2023-05-12T13:10:39.441Z,6.82
2023-05-12T13:15:42.602Z,7.28
2023-05-12T13:20:47.999Z,8.50
2023-05-12T13:25:52.583Z,7.38
2023-05-12T13:30:56.365Z,6.05
2023-05-12T13:35:59.811Z,5.07
2023-05-12T13:41:07.900Z,5.38
2023-05-12T13:46:10.872Z,5.00
2023-05-12T13:51:14.298Z,4.13
2023-05-12T13:56:17.395Z,5.32
2023-05-12T14:01:20.971Z,8.38
2023-05-12T14:06:24.200Z,6.55
2023-05-12T14:11:27.584Z,5.78
2023-05-12T14:16:31.021Z,6.30
2023-05-12T14:21:34.098Z,7.70
2023-05-12T14:26:37.258Z,7.38
2023-05-12T14:31:40.831Z,6.13
2023-05-12T14:36:43.987Z,6.30
2023-05-12T14:41:47.267Z,6.20
2023-05-12T14:46:50.536Z,5.90
2023-05-12T14:51:53.705Z,6.65
2023-05-12T14:56:57.206Z,6.85
2023-05-12T15:02:00.879Z,6.63
2023-05-12T15:07:05.432Z,6.75
2023-05-12T15:12:09.347Z,6.35
2023-05-12T15:17:12.422Z,7.20
2023-05-12T15:22:15.772Z,7.28
2023-05-12T15:27:18.999Z,7.53
2023-05-12T15:32:22.256Z,8.30
2023-05-12T15:37:25.487Z,7.95
2023-05-12T15:42:33.219Z,6.13
2023-05-12T15:47:36.940Z,6.55
2023-05-12T15:52:39.874Z,4.85
2023-05-12T15:57:42.752Z,3.53
2023-05-12T16:02:45.997Z,3.55
2023-05-12T16:07:48.957Z,3.95
2023-05-12T16:12:53.591Z,4.50
2023-05-12T16:17:56.541Z,3.90
2023-05-12T16:23:00.348Z,4.05
2023-05-12T16:28:04.052Z,3.63
2023-05-12T16:33:10.317Z,3.83
2023-05-12T16:38:14.607Z,4.10
2023-05-12T16:43:17.636Z,3.58
2023-05-12T16:48:20.650Z,4.20
2023-05-12T16:53:23.723Z,4.15
2023-05-12T16:58:28.168Z,4.10
2023-05-12T17:03:32.046Z,3.58
2023-05-12T17:08:37.856Z,3.75
2023-05-12T17:13:41.065Z,4.53
2023-05-12T17:23:49.929Z,4.03
2023-05-12T17:28:53.162Z,3.95
2023-05-12T17:33:56.206Z,3.47
2023-05-12T17:39:00.462Z,3.70
2023-05-12T17:49:06.074Z,3.70
2023-05-12T17:54:08.975Z,4.10
2023-05-12T17:59:12.762Z,3.95
2023-05-12T18:04:16.006Z,4.00
2023-05-12T18:09:20.437Z,3.47
2023-05-12T18:14:23.613Z,4.38
2023-05-12T18:19:36.684Z,5.03
2023-05-12T18:24:39.625Z,4.53
2023-05-12T18:29:42.699Z,4.07
2023-05-12T18:34:46.941Z,4.10
2023-05-12T18:44:54.203Z,4.75
2023-05-12T18:49:57.170Z,5.05
2023-05-12T18:55:00.184Z,17.40
2023-05-12T19:00:03.352Z,11.18
2023-05-12T19:05:10.240Z,6.80
2023-05-12T19:10:13.195Z,9.75
2023-05-12T19:15:16.755Z,7.00
2023-05-12T19:20:19.782Z,7.03
2023-05-12T19:25:23.307Z,7.22
2023-05-12T19:30:27.844Z,7.20
2023-05-12T19:35:30.757Z,7.30
2023-05-12T19:40:33.554Z,6.93
2023-05-12T19:45:36.420Z,6.05
2023-05-12T19:50:39.712Z,5.95
2023-05-12T19:55:42.415Z,6.18
2023-05-12T20:00:45.107Z,6.10
2023-05-12T20:05:48.652Z,7.38
2023-05-12T20:10:51.648Z,12.68
2023-05-12T20:15:55.127Z,11.48
2023-05-12T20:20:58.025Z,9.80
2023-05-12T20:26:00.852Z,9.35
2023-05-12T20:31:03.799Z,11.23
2023-05-12T20:36:06.950Z,10.00
2023-05-12T20:41:10.062Z,8.88
2023-05-12T20:46:13.745Z,9.25
2023-05-12T20:51:16.833Z,11.40
2023-05-12T20:56:20.073Z,12.48
2023-05-12T21:01:23.058Z,11.88
2023-05-12T21:06:26.083Z,12.55
2023-05-12T21:11:28.883Z,11.98
2023-05-12T21:16:31.670Z,10.80
2023-05-12T21:21:34.722Z,10.95
2023-05-12T21:26:37.736Z,12.30
2023-05-12T21:31:40.663Z,8.90
2023-05-12T21:36:43.582Z,8.95
2023-05-12T21:41:46.600Z,9.85
2023-05-12T21:46:49.436Z,8.65
2023-05-12T21:51:55.462Z,8.65
2023-05-12T21:56:58.453Z,9.30
2023-05-12T22:02:01.418Z,9.38
2023-05-12T22:07:04.362Z,8.57
2023-05-12T22:12:07.403Z,7.88
2023-05-12T22:17:10.356Z,8.20
2023-05-12T22:22:12.999Z,9.00
2023-05-12T22:27:21.370Z,8.32
2023-05-12T22:32:24.772Z,8.85
2023-05-12T22:37:27.675Z,7.78
2023-05-12T22:42:30.614Z,7.63
2023-05-12T22:47:33.765Z,7.53
2023-05-12T22:52:37.063Z,6.30
2023-05-12T22:57:41.220Z,6.00
2023-05-12T23:02:44.239Z,6.15
2023-05-12T23:07:47.309Z,5.32
2023-05-12T23:12:50.181Z,5.45
2023-05-12T23:17:53.183Z,5.55
2023-05-12T23:22:56.632Z,5.07
2023-05-12T23:27:59.337Z,5.22
2023-05-12T23:33:02.462Z,5.70
2023-05-12T23:38:05.370Z,5.10
2023-05-12T23:43:08.250Z,5.15
2023-05-12T23:48:11.562Z,5.00
2023-05-12T23:53:14.328Z,4.75
2023-05-12T23:58:17.245Z,4.57
